sensor_id;sensor_type;location;lat;lon;timestamp;P1;durP1;ratioP1;P2;durP2;ratioP2
54983;SDS011;40884;53.562;9.940;2023-12-07T00:00:41;80.47;;;41.63;;
54983;SDS011;40884;53.562;9.940;2023-12-07T00:01:41;81.17;;;43.33;;
54983;SDS011;40884;53.562;9.940;2023-12-07T00:02:41;77.40;;;42.17;;
54983;SDS011;40884;53.562;9.940;2023-12-07T00:03:41;84.30;;;42.43;;
54983;SDS011;40884;53.562;9.940;2023-12-07T00:04:41;74.37;;;41.33;;
54983;SDS011;40884;53.562;9.940;2023-12-07T00:05:42;78.87;;;42.37;;
54983;SDS011;40884;53.562;9.940;2023-12-07T00:06:42;75.30;;;41.97;;
54983;SDS011;40884;53.562;9.940;2023-12-07T00:07:42;76.73;;;40.77;;
54983;SDS011;40884;53.562;9.940;2023-12-07T00:08:42;75.50;;;41.40;;
54983;SDS011;40884;53.562;9.940;2023-12-07T00:09:42;66.97;;;37.73;;
54983;SDS011;40884;53.562;9.940;2023-12-07T00:10:42;73.13;;;40.67;;
54983;SDS011;40884;53.562;9.940;2023-12-07T00:11:42;77.77;;;40.57;;
54983;SDS011;40884;53.562;9.940;2023-12-07T00:12:43;70.87;;;40.00;;
54983;SDS011;40884;53.562;9.940;2023-12-07T00:13:43;73.63;;;40.40;;
54983;SDS011;40884;53.562;9.940;2023-12-07T00:14:43;79.27;;;41.73;;
54983;SDS011;40884;53.562;9.940;2023-12-07T00:15:43;75.63;;;41.93;;
54983;SDS011;40884;53.562;9.940;2023-12-07T00:16:43;78.50;;;42.30;;
54983;SDS011;40884;53.562;9.940;2023-12-07T00:17:43;82.47;;;42.07;;
54983;SDS011;40884;53.562;9.940;2023-12-07T00:18:43;81.37;;;42.00;;
54983;SDS011;40884;53.562;9.940;2023-12-07T00:19:44;77.17;;;40.70;;
54983;SDS011;40884;53.562;9.940;2023-12-07T00:20:44;77.17;;;41.10;;
54983;SDS011;40884;53.562;9.940;2023-12-07T00:21:44;79.50;;;41.27;;
54983;SDS011;40884;53.562;9.940;2023-12-07T00:22:44;80.37;;;43.07;;
54983;SDS011;40884;53.562;9.940;2023-12-07T00:23:44;79.10;;;42.30;;
54983;SDS011;40884;53.562;9.940;2023-12-07T00:24:44;76.30;;;41.80;;
54983;SDS011;40884;53.562;9.940;2023-12-07T00:25:44;81.70;;;43.43;;
54983;SDS011;40884;53.562;9.940;2023-12-07T00:26:45;77.90;;;41.43;;
54983;SDS011;40884;53.562;9.940;2023-12-07T00:27:45;80.70;;;42.27;;
54983;SDS011;40884;53.562;9.940;2023-12-07T00:28:45;75.03;;;40.83;;
54983;SDS011;40884;53.562;9.940;2023-12-07T00:29:45;78.37;;;41.50;;
54983;SDS011;40884;53.562;9.940;2023-12-07T00:30:45;77.07;;;41.77;;
54983;SDS011;40884;53.562;9.940;2023-12-07T00:31:45;79.43;;;42.70;;
54983;SDS011;40884;53.562;9.940;2023-12-07T00:32:45;78.00;;;41.33;;
54983;SDS011;40884;53.562;9.940;2023-12-07T00:33:46;80.87;;;43.23;;
54983;SDS011;40884;53.562;9.940;2023-12-07T00:34:46;75.53;;;41.50;;
54983;SDS011;40884;53.562;9.940;2023-12-07T00:35:46;76.00;;;41.57;;
54983;SDS011;40884;53.562;9.940;2023-12-07T00:36:46;75.60;;;41.40;;
54983;SDS011;40884;53.562;9.940;2023-12-07T00:37:46;76.13;;;42.17;;
54983;SDS011;40884;53.562;9.940;2023-12-07T00:38:46;77.97;;;42.90;;
54983;SDS011;40884;53.562;9.940;2023-12-07T00:39:47;75.23;;;40.70;;
54983;SDS011;40884;53.562;9.940;2023-12-07T00:40:47;71.20;;;37.97;;
54983;SDS011;40884;53.562;9.940;2023-12-07T00:41:47;77.50;;;40.93;;
54983;SDS011;40884;53.562;9.940;2023-12-07T00:42:47;78.50;;;40.63;;
54983;SDS011;40884;53.562;9.940;2023-12-07T00:43:47;77.87;;;41.00;;
54983;SDS011;40884;53.562;9.940;2023-12-07T00:44:47;76.37;;;42.03;;
54983;SDS011;40884;53.562;9.940;2023-12-07T00:45:48;78.60;;;41.87;;
54983;SDS011;40884;53.562;9.940;2023-12-07T00:46:48;78.43;;;41.50;;
54983;SDS011;40884;53.562;9.940;2023-12-07T00:47:48;78.00;;;41.77;;
54983;SDS011;40884;53.562;9.940;2023-12-07T00:48:48;81.73;;;40.53;;
54983;SDS011;40884;53.562;9.940;2023-12-07T00:49:48;75.20;;;40.07;;
54983;SDS011;40884;53.562;9.940;2023-12-07T00:50:48;80.33;;;42.03;;
54983;SDS011;40884;53.562;9.940;2023-12-07T00:51:49;76.17;;;40.13;;
54983;SDS011;40884;53.562;9.940;2023-12-07T00:52:49;71.77;;;40.17;;
54983;SDS011;40884;53.562;9.940;2023-12-07T00:53:49;74.37;;;41.83;;
54983;SDS011;40884;53.562;9.940;2023-12-07T00:54:49;70.60;;;39.20;;
54983;SDS011;40884;53.562;9.940;2023-12-07T00:55:49;73.30;;;39.80;;
54983;SDS011;40884;53.562;9.940;2023-12-07T00:56:49;72.93;;;40.60;;
54983;SDS011;40884;53.562;9.940;2023-12-07T00:57:49;72.40;;;39.63;;
54983;SDS011;40884;53.562;9.940;2023-12-07T00:58:50;75.30;;;39.90;;
54983;SDS011;40884;53.562;9.940;2023-12-07T00:59:50;73.07;;;39.53;;
54983;SDS011;40884;53.562;9.940;2023-12-07T01:00:50;71.87;;;38.07;;
54983;SDS011;40884;53.562;9.940;2023-12-07T01:01:51;77.77;;;41.10;;
54983;SDS011;40884;53.562;9.940;2023-12-07T01:02:51;75.43;;;39.53;;
54983;SDS011;40884;53.562;9.940;2023-12-07T01:03:51;70.47;;;38.57;;
54983;SDS011;40884;53.562;9.940;2023-12-07T01:04:51;71.13;;;39.10;;
54983;SDS011;40884;53.562;9.940;2023-12-07T01:05:51;71.67;;;39.10;;
54983;SDS011;40884;53.562;9.940;2023-12-07T01:06:51;72.23;;;39.77;;
54983;SDS011;40884;53.562;9.940;2023-12-07T01:07:51;72.57;;;39.50;;
54983;SDS011;40884;53.562;9.940;2023-12-07T01:08:51;72.23;;;39.67;;
54983;SDS011;40884;53.562;9.940;2023-12-07T01:09:52;74.63;;;38.80;;
54983;SDS011;40884;53.562;9.940;2023-12-07T01:10:52;73.53;;;39.63;;
54983;SDS011;40884;53.562;9.940;2023-12-07T01:11:53;72.37;;;40.90;;
54983;SDS011;40884;53.562;9.940;2023-12-07T01:12:53;73.67;;;40.07;;
54983;SDS011;40884;53.562;9.940;2023-12-07T01:13:53;69.30;;;38.10;;
54983;SDS011;40884;53.562;9.940;2023-12-07T01:14:53;70.83;;;39.40;;
54983;SDS011;40884;53.562;9.940;2023-12-07T01:15:53;74.90;;;40.17;;
54983;SDS011;40884;53.562;9.940;2023-12-07T01:16:53;74.57;;;40.23;;
54983;SDS011;40884;53.562;9.940;2023-12-07T01:17:53;72.90;;;40.20;;
54983;SDS011;40884;53.562;9.940;2023-12-07T01:18:54;76.13;;;40.20;;
54983;SDS011;40884;53.562;9.940;2023-12-07T01:19:54;82.10;;;41.93;;
54983;SDS011;40884;53.562;9.940;2023-12-07T01:20:54;74.07;;;39.13;;
54983;SDS011;40884;53.562;9.940;2023-12-07T01:21:54;74.07;;;39.53;;
54983;SDS011;40884;53.562;9.940;2023-12-07T01:22:54;70.27;;;39.17;;
54983;SDS011;40884;53.562;9.940;2023-12-07T01:23:54;75.97;;;40.37;;
54983;SDS011;40884;53.562;9.940;2023-12-07T01:24:55;73.87;;;38.73;;
54983;SDS011;40884;53.562;9.940;2023-12-07T01:25:55;65.80;;;37.73;;
54983;SDS011;40884;53.562;9.940;2023-12-07T01:26:55;72.53;;;38.93;;
54983;SDS011;40884;53.562;9.940;2023-12-07T01:27:55;71.83;;;38.37;;
54983;SDS011;40884;53.562;9.940;2023-12-07T01:28:55;74.27;;;40.00;;
54983;SDS011;40884;53.562;9.940;2023-12-07T01:29:55;75.83;;;39.47;;
54983;SDS011;40884;53.562;9.940;2023-12-07T01:30:56;70.57;;;38.17;;
54983;SDS011;40884;53.562;9.940;2023-12-07T01:31:56;74.40;;;38.63;;
54983;SDS011;40884;53.562;9.940;2023-12-07T01:32:56;70.50;;;39.03;;
54983;SDS011;40884;53.562;9.940;2023-12-07T01:33:56;76.80;;;39.93;;
54983;SDS011;40884;53.562;9.940;2023-12-07T01:34:56;72.90;;;38.60;;
54983;SDS011;40884;53.562;9.940;2023-12-07T01:35:56;78.00;;;40.70;;
54983;SDS011;40884;53.562;9.940;2023-12-07T01:36:56;78.30;;;40.73;;
54983;SDS011;40884;53.562;9.940;2023-12-07T01:37:57;79.63;;;40.00;;
54983;SDS011;40884;53.562;9.940;2023-12-07T01:38:57;77.70;;;39.50;;
54983;SDS011;40884;53.562;9.940;2023-12-07T01:39:58;76.47;;;39.47;;
54983;SDS011;40884;53.562;9.940;2023-12-07T01:40:58;78.30;;;39.80;;
54983;SDS011;40884;53.562;9.940;2023-12-07T01:41:58;75.10;;;39.40;;
54983;SDS011;40884;53.562;9.940;2023-12-07T01:42:58;74.90;;;40.13;;
54983;SDS011;40884;53.562;9.940;2023-12-07T01:43:58;76.70;;;40.10;;
54983;SDS011;40884;53.562;9.940;2023-12-07T01:44:58;73.07;;;40.27;;
54983;SDS011;40884;53.562;9.940;2023-12-07T01:45:59;75.20;;;38.37;;
54983;SDS011;40884;53.562;9.940;2023-12-07T01:46:59;82.47;;;40.03;;
54983;SDS011;40884;53.562;9.940;2023-12-07T01:47:59;80.37;;;40.40;;
54983;SDS011;40884;53.562;9.940;2023-12-07T01:48:59;71.47;;;37.23;;
54983;SDS011;40884;53.562;9.940;2023-12-07T01:50:00;76.07;;;38.23;;
54983;SDS011;40884;53.562;9.940;2023-12-07T01:51:00;76.93;;;38.73;;
54983;SDS011;40884;53.562;9.940;2023-12-07T01:52:01;72.70;;;36.93;;
54983;SDS011;40884;53.562;9.940;2023-12-07T01:53:02;70.78;;;37.47;;
54983;SDS011;40884;53.562;9.940;2023-12-07T01:54:02;69.10;;;36.80;;
54983;SDS011;40884;53.562;9.940;2023-12-07T01:55:02;69.30;;;37.10;;
54983;SDS011;40884;53.562;9.940;2023-12-07T01:56:02;65.37;;;35.80;;
54983;SDS011;40884;53.562;9.940;2023-12-07T01:57:03;70.93;;;37.33;;
54983;SDS011;40884;53.562;9.940;2023-12-07T01:58:03;65.23;;;35.40;;
54983;SDS011;40884;53.562;9.940;2023-12-07T01:59:03;63.83;;;35.23;;
54983;SDS011;40884;53.562;9.940;2023-12-07T02:00:04;68.30;;;36.27;;
54983;SDS011;40884;53.562;9.940;2023-12-07T02:01:04;65.27;;;34.97;;
54983;SDS011;40884;53.562;9.940;2023-12-07T02:02:04;65.53;;;35.90;;
54983;SDS011;40884;53.562;9.940;2023-12-07T02:03:05;63.93;;;35.20;;
54983;SDS011;40884;53.562;9.940;2023-12-07T02:04:05;60.10;;;34.50;;
54983;SDS011;40884;53.562;9.940;2023-12-07T02:05:05;64.43;;;35.67;;
54983;SDS011;40884;53.562;9.940;2023-12-07T02:06:05;68.57;;;36.80;;
54983;SDS011;40884;53.562;9.940;2023-12-07T02:07:06;69.27;;;36.93;;
54983;SDS011;40884;53.562;9.940;2023-12-07T02:08:06;61.43;;;35.03;;
54983;SDS011;40884;53.562;9.940;2023-12-07T02:09:07;63.73;;;34.63;;
54983;SDS011;40884;53.562;9.940;2023-12-07T02:10:07;64.67;;;35.63;;
54983;SDS011;40884;53.562;9.940;2023-12-07T02:11:08;64.43;;;36.43;;
54983;SDS011;40884;53.562;9.940;2023-12-07T02:12:08;64.23;;;35.50;;
54983;SDS011;40884;53.562;9.940;2023-12-07T02:13:08;62.90;;;34.87;;
54983;SDS011;40884;53.562;9.940;2023-12-07T02:14:08;64.77;;;34.17;;
54983;SDS011;40884;53.562;9.940;2023-12-07T02:15:09;62.30;;;35.57;;
54983;SDS011;40884;53.562;9.940;2023-12-07T02:16:11;64.80;;;36.27;;
54983;SDS011;40884;53.562;9.940;2023-12-07T02:18:28;58.03;;;34.25;;
54983;SDS011;40884;53.562;9.940;2023-12-07T02:21:47;60.83;;;34.60;;
54983;SDS011;40884;53.562;9.940;2023-12-07T02:22:49;59.58;;;34.13;;
54983;SDS011;40884;53.562;9.940;2023-12-07T02:23:51;59.83;;;35.00;;
54983;SDS011;40884;53.562;9.940;2023-12-07T02:25:02;62.73;;;34.17;;
54983;SDS011;40884;53.562;9.940;2023-12-07T02:26:03;58.30;;;33.47;;
54983;SDS011;40884;53.562;9.940;2023-12-07T02:27:06;63.88;;;34.33;;
54983;SDS011;40884;53.562;9.940;2023-12-07T02:28:07;57.60;;;33.20;;
54983;SDS011;40884;53.562;9.940;2023-12-07T02:29:07;58.00;;;33.50;;
54983;SDS011;40884;53.562;9.940;2023-12-07T02:30:07;56.60;;;33.67;;
54983;SDS011;40884;53.562;9.940;2023-12-07T02:31:08;59.73;;;33.50;;
54983;SDS011;40884;53.562;9.940;2023-12-07T02:32:08;59.53;;;33.87;;
54983;SDS011;40884;53.562;9.940;2023-12-07T02:33:09;58.53;;;34.37;;
54983;SDS011;40884;53.562;9.940;2023-12-07T02:34:09;52.57;;;33.33;;
54983;SDS011;40884;53.562;9.940;2023-12-07T02:35:09;52.37;;;32.57;;
54983;SDS011;40884;53.562;9.940;2023-12-07T02:36:10;54.33;;;31.87;;
54983;SDS011;40884;53.562;9.940;2023-12-07T02:37:12;52.13;;;31.47;;
54983;SDS011;40884;53.562;9.940;2023-12-07T02:38:12;51.13;;;31.93;;
54983;SDS011;40884;53.562;9.940;2023-12-07T02:39:13;51.67;;;31.67;;
54983;SDS011;40884;53.562;9.940;2023-12-07T02:40:16;52.33;;;32.03;;
54983;SDS011;40884;53.562;9.940;2023-12-07T02:41:17;54.75;;;33.10;;
54983;SDS011;40884;53.562;9.940;2023-12-07T02:42:18;50.45;;;31.63;;
54983;SDS011;40884;53.562;9.940;2023-12-07T02:43:18;54.80;;;32.93;;
54983;SDS011;40884;53.562;9.940;2023-12-07T02:44:19;57.77;;;33.17;;
54983;SDS011;40884;53.562;9.940;2023-12-07T02:45:20;56.23;;;32.33;;
54983;SDS011;40884;53.562;9.940;2023-12-07T02:46:20;56.00;;;32.03;;
54983;SDS011;40884;53.562;9.940;2023-12-07T02:47:20;54.23;;;32.70;;
54983;SDS011;40884;53.562;9.940;2023-12-07T02:48:21;54.80;;;32.53;;
54983;SDS011;40884;53.562;9.940;2023-12-07T02:49:21;58.50;;;33.30;;
54983;SDS011;40884;53.562;9.940;2023-12-07T02:50:21;56.07;;;32.93;;
54983;SDS011;40884;53.562;9.940;2023-12-07T02:51:21;54.47;;;31.73;;
54983;SDS011;40884;53.562;9.940;2023-12-07T02:52:21;59.90;;;34.60;;
54983;SDS011;40884;53.562;9.940;2023-12-07T02:53:21;53.27;;;32.43;;
54983;SDS011;40884;53.562;9.940;2023-12-07T02:54:21;59.57;;;33.20;;
54983;SDS011;40884;53.562;9.940;2023-12-07T02:55:22;53.27;;;32.13;;
54983;SDS011;40884;53.562;9.940;2023-12-07T02:56:22;57.07;;;33.67;;
54983;SDS011;40884;53.562;9.940;2023-12-07T02:57:22;55.87;;;32.93;;
54983;SDS011;40884;53.562;9.940;2023-12-07T02:58:22;54.83;;;32.60;;
54983;SDS011;40884;53.562;9.940;2023-12-07T02:59:22;55.47;;;32.87;;
54983;SDS011;40884;53.562;9.940;2023-12-07T03:00:23;60.77;;;34.93;;
54983;SDS011;40884;53.562;9.940;2023-12-07T03:01:23;57.00;;;34.37;;
54983;SDS011;40884;53.562;9.940;2023-12-07T03:02:23;53.63;;;32.93;;
54983;SDS011;40884;53.562;9.940;2023-12-07T03:03:23;51.67;;;32.07;;
54983;SDS011;40884;53.562;9.940;2023-12-07T03:04:23;57.73;;;32.63;;
54983;SDS011;40884;53.562;9.940;2023-12-07T03:05:23;56.87;;;33.50;;
54983;SDS011;40884;53.562;9.940;2023-12-07T03:06:24;55.67;;;33.23;;
54983;SDS011;40884;53.562;9.940;2023-12-07T03:07:24;61.77;;;34.17;;
54983;SDS011;40884;53.562;9.940;2023-12-07T03:08:24;56.63;;;31.93;;
54983;SDS011;40884;53.562;9.940;2023-12-07T03:09:24;60.40;;;33.53;;
54983;SDS011;40884;53.562;9.940;2023-12-07T03:10:24;52.63;;;31.17;;
54983;SDS011;40884;53.562;9.940;2023-12-07T03:11:24;54.87;;;32.97;;
54983;SDS011;40884;53.562;9.940;2023-12-07T03:12:24;53.17;;;32.17;;
54983;SDS011;40884;53.562;9.940;2023-12-07T03:13:25;56.67;;;32.83;;
54983;SDS011;40884;53.562;9.940;2023-12-07T03:14:25;49.60;;;31.77;;
54983;SDS011;40884;53.562;9.940;2023-12-07T03:15:25;56.57;;;32.17;;
54983;SDS011;40884;53.562;9.940;2023-12-07T03:16:25;52.60;;;31.90;;
54983;SDS011;40884;53.562;9.940;2023-12-07T03:17:25;52.83;;;32.43;;
54983;SDS011;40884;53.562;9.940;2023-12-07T03:18:25;50.03;;;31.57;;
54983;SDS011;40884;53.562;9.940;2023-12-07T03:19:25;48.80;;;30.17;;
54983;SDS011;40884;53.562;9.940;2023-12-07T03:20:26;54.20;;;32.40;;
54983;SDS011;40884;53.562;9.940;2023-12-07T03:21:26;48.83;;;31.63;;
54983;SDS011;40884;53.562;9.940;2023-12-07T03:22:26;49.90;;;31.90;;
54983;SDS011;40884;53.562;9.940;2023-12-07T03:23:26;51.40;;;32.63;;
54983;SDS011;40884;53.562;9.940;2023-12-07T03:24:26;50.33;;;31.57;;
54983;SDS011;40884;53.562;9.940;2023-12-07T03:25:26;49.33;;;31.17;;
54983;SDS011;40884;53.562;9.940;2023-12-07T03:26:27;49.07;;;31.27;;
54983;SDS011;40884;53.562;9.940;2023-12-07T03:27:27;50.30;;;30.73;;
54983;SDS011;40884;53.562;9.940;2023-12-07T03:28:27;47.50;;;30.20;;
54983;SDS011;40884;53.562;9.940;2023-12-07T03:29:27;49.10;;;29.97;;
54983;SDS011;40884;53.562;9.940;2023-12-07T03:30:27;47.33;;;30.80;;
54983;SDS011;40884;53.562;9.940;2023-12-07T03:31:27;49.20;;;30.40;;
54983;SDS011;40884;53.562;9.940;2023-12-07T03:32:27;47.43;;;31.77;;
54983;SDS011;40884;53.562;9.940;2023-12-07T03:33:28;49.37;;;31.00;;
54983;SDS011;40884;53.562;9.940;2023-12-07T03:34:28;48.97;;;31.53;;
54983;SDS011;40884;53.562;9.940;2023-12-07T03:35:28;50.13;;;31.83;;
54983;SDS011;40884;53.562;9.940;2023-12-07T03:36:28;50.63;;;30.10;;
54983;SDS011;40884;53.562;9.940;2023-12-07T03:37:28;44.20;;;29.67;;
54983;SDS011;40884;53.562;9.940;2023-12-07T03:38:28;41.53;;;28.60;;
54983;SDS011;40884;53.562;9.940;2023-12-07T03:39:28;44.70;;;29.77;;
54983;SDS011;40884;53.562;9.940;2023-12-07T03:40:29;50.57;;;32.07;;
54983;SDS011;40884;53.562;9.940;2023-12-07T03:41:29;46.97;;;30.37;;
54983;SDS011;40884;53.562;9.940;2023-12-07T03:42:29;50.33;;;31.43;;
54983;SDS011;40884;53.562;9.940;2023-12-07T03:43:29;46.03;;;29.00;;
54983;SDS011;40884;53.562;9.940;2023-12-07T03:44:29;47.27;;;30.93;;
54983;SDS011;40884;53.562;9.940;2023-12-07T03:45:29;46.97;;;30.50;;
54983;SDS011;40884;53.562;9.940;2023-12-07T03:46:29;48.47;;;30.33;;
54983;SDS011;40884;53.562;9.940;2023-12-07T03:47:30;48.40;;;31.47;;
54983;SDS011;40884;53.562;9.940;2023-12-07T03:48:30;46.93;;;31.43;;
54983;SDS011;40884;53.562;9.940;2023-12-07T03:49:30;47.27;;;30.27;;
54983;SDS011;40884;53.562;9.940;2023-12-07T03:50:30;48.80;;;31.20;;
54983;SDS011;40884;53.562;9.940;2023-12-07T03:51:30;47.30;;;31.07;;
54983;SDS011;40884;53.562;9.940;2023-12-07T03:52:30;47.00;;;30.30;;
54983;SDS011;40884;53.562;9.940;2023-12-07T03:53:30;49.00;;;31.10;;
54983;SDS011;40884;53.562;9.940;2023-12-07T03:54:31;45.43;;;30.07;;
54983;SDS011;40884;53.562;9.940;2023-12-07T03:55:31;48.57;;;30.97;;
54983;SDS011;40884;53.562;9.940;2023-12-07T03:56:32;45.27;;;30.00;;
54983;SDS011;40884;53.562;9.940;2023-12-07T03:57:32;47.25;;;29.95;;
54983;SDS011;40884;53.562;9.940;2023-12-07T03:58:32;46.07;;;30.20;;
54983;SDS011;40884;53.562;9.940;2023-12-07T03:59:35;44.90;;;30.20;;
54983;SDS011;40884;53.562;9.940;2023-12-07T04:00:35;48.70;;;31.52;;
54983;SDS011;40884;53.562;9.940;2023-12-07T04:01:35;45.97;;;30.53;;
54983;SDS011;40884;53.562;9.940;2023-12-07T04:02:35;45.97;;;29.63;;
54983;SDS011;40884;53.562;9.940;2023-12-07T04:03:35;45.83;;;29.87;;
54983;SDS011;40884;53.562;9.940;2023-12-07T04:04:36;49.70;;;31.43;;
54983;SDS011;40884;53.562;9.940;2023-12-07T04:05:36;48.63;;;31.17;;
54983;SDS011;40884;53.562;9.940;2023-12-07T04:06:36;48.20;;;31.17;;
54983;SDS011;40884;53.562;9.940;2023-12-07T04:07:36;51.03;;;31.70;;
54983;SDS011;40884;53.562;9.940;2023-12-07T04:08:36;48.27;;;30.70;;
54983;SDS011;40884;53.562;9.940;2023-12-07T04:09:36;48.90;;;30.70;;
54983;SDS011;40884;53.562;9.940;2023-12-07T04:10:37;47.33;;;30.03;;
54983;SDS011;40884;53.562;9.940;2023-12-07T04:11:37;51.23;;;31.87;;
54983;SDS011;40884;53.562;9.940;2023-12-07T04:12:37;47.53;;;31.50;;
54983;SDS011;40884;53.562;9.940;2023-12-07T04:13:37;50.30;;;30.83;;
54983;SDS011;40884;53.562;9.940;2023-12-07T04:14:37;50.87;;;33.13;;
54983;SDS011;40884;53.562;9.940;2023-12-07T04:15:37;49.70;;;31.73;;
54983;SDS011;40884;53.562;9.940;2023-12-07T04:16:38;51.60;;;31.73;;
54983;SDS011;40884;53.562;9.940;2023-12-07T04:17:38;49.23;;;31.67;;
54983;SDS011;40884;53.562;9.940;2023-12-07T04:18:38;47.50;;;31.20;;
54983;SDS011;40884;53.562;9.940;2023-12-07T04:19:38;47.57;;;30.87;;
54983;SDS011;40884;53.562;9.940;2023-12-07T04:20:38;50.43;;;30.87;;
54983;SDS011;40884;53.562;9.940;2023-12-07T04:21:38;44.80;;;29.83;;
54983;SDS011;40884;53.562;9.940;2023-12-07T04:22:39;44.17;;;29.83;;
54983;SDS011;40884;53.562;9.940;2023-12-07T04:23:39;47.63;;;31.17;;
54983;SDS011;40884;53.562;9.940;2023-12-07T04:24:39;43.17;;;29.00;;
54983;SDS011;40884;53.562;9.940;2023-12-07T04:25:40;47.73;;;30.83;;
54983;SDS011;40884;53.562;9.940;2023-12-07T04:26:40;46.00;;;31.30;;
54983;SDS011;40884;53.562;9.940;2023-12-07T04:27:40;46.83;;;30.07;;
54983;SDS011;40884;53.562;9.940;2023-12-07T04:28:40;46.90;;;30.73;;
54983;SDS011;40884;53.562;9.940;2023-12-07T04:29:40;44.67;;;29.57;;
54983;SDS011;40884;53.562;9.940;2023-12-07T04:30:40;46.30;;;30.43;;
54983;SDS011;40884;53.562;9.940;2023-12-07T04:31:41;45.63;;;30.80;;
54983;SDS011;40884;53.562;9.940;2023-12-07T04:32:41;45.73;;;30.40;;
54983;SDS011;40884;53.562;9.940;2023-12-07T04:33:41;47.10;;;30.63;;
54983;SDS011;40884;53.562;9.940;2023-12-07T04:34:41;47.37;;;30.40;;
54983;SDS011;40884;53.562;9.940;2023-12-07T04:35:41;44.43;;;29.40;;
54983;SDS011;40884;53.562;9.940;2023-12-07T04:36:41;46.57;;;29.53;;
54983;SDS011;40884;53.562;9.940;2023-12-07T04:37:41;45.80;;;29.60;;
54983;SDS011;40884;53.562;9.940;2023-12-07T04:38:42;45.50;;;28.83;;
54983;SDS011;40884;53.562;9.940;2023-12-07T04:39:42;44.00;;;29.47;;
54983;SDS011;40884;53.562;9.940;2023-12-07T04:40:42;45.20;;;29.90;;
54983;SDS011;40884;53.562;9.940;2023-12-07T04:41:42;45.63;;;30.80;;
54983;SDS011;40884;53.562;9.940;2023-12-07T04:42:42;46.97;;;29.77;;
54983;SDS011;40884;53.562;9.940;2023-12-07T04:43:42;44.70;;;30.30;;
54983;SDS011;40884;53.562;9.940;2023-12-07T04:44:42;48.20;;;30.07;;
54983;SDS011;40884;53.562;9.940;2023-12-07T04:45:42;44.37;;;29.20;;
54983;SDS011;40884;53.562;9.940;2023-12-07T04:46:43;44.37;;;30.17;;
54983;SDS011;40884;53.562;9.940;2023-12-07T04:47:43;44.70;;;30.73;;
54983;SDS011;40884;53.562;9.940;2023-12-07T04:48:43;44.90;;;28.67;;
54983;SDS011;40884;53.562;9.940;2023-12-07T04:49:43;45.73;;;28.57;;
54983;SDS011;40884;53.562;9.940;2023-12-07T04:50:43;44.27;;;29.67;;
54983;SDS011;40884;53.562;9.940;2023-12-07T04:51:43;43.97;;;28.97;;
54983;SDS011;40884;53.562;9.940;2023-12-07T04:52:44;44.77;;;29.23;;
54983;SDS011;40884;53.562;9.940;2023-12-07T04:53:44;43.40;;;29.13;;
54983;SDS011;40884;53.562;9.940;2023-12-07T04:54:44;44.90;;;29.70;;
54983;SDS011;40884;53.562;9.940;2023-12-07T04:55:44;43.03;;;29.77;;
54983;SDS011;40884;53.562;9.940;2023-12-07T04:56:44;40.87;;;27.87;;
54983;SDS011;40884;53.562;9.940;2023-12-07T04:57:44;42.80;;;28.87;;
54983;SDS011;40884;53.562;9.940;2023-12-07T04:58:44;46.63;;;29.40;;
54983;SDS011;40884;53.562;9.940;2023-12-07T04:59:45;42.97;;;29.03;;
54983;SDS011;40884;53.562;9.940;2023-12-07T05:00:45;47.20;;;30.70;;
54983;SDS011;40884;53.562;9.940;2023-12-07T05:01:46;44.60;;;28.60;;
54983;SDS011;40884;53.562;9.940;2023-12-07T05:02:46;42.40;;;28.42;;
54983;SDS011;40884;53.562;9.940;2023-12-07T05:03:47;43.43;;;28.83;;
54983;SDS011;40884;53.562;9.940;2023-12-07T05:04:47;46.40;;;29.80;;
54983;SDS011;40884;53.562;9.940;2023-12-07T05:05:47;45.50;;;30.33;;
54983;SDS011;40884;53.562;9.940;2023-12-07T05:06:47;42.50;;;29.73;;
54983;SDS011;40884;53.562;9.940;2023-12-07T05:07:47;45.10;;;29.60;;
54983;SDS011;40884;53.562;9.940;2023-12-07T05:08:47;46.30;;;29.43;;
54983;SDS011;40884;53.562;9.940;2023-12-07T05:09:47;40.37;;;28.73;;
54983;SDS011;40884;53.562;9.940;2023-12-07T05:10:48;43.43;;;28.83;;
54983;SDS011;40884;53.562;9.940;2023-12-07T05:11:48;42.37;;;29.27;;
54983;SDS011;40884;53.562;9.940;2023-12-07T05:12:48;42.93;;;28.93;;
54983;SDS011;40884;53.562;9.940;2023-12-07T05:13:48;41.63;;;27.83;;
54983;SDS011;40884;53.562;9.940;2023-12-07T05:14:48;41.07;;;27.57;;
54983;SDS011;40884;53.562;9.940;2023-12-07T05:15:48;40.30;;;27.47;;
54983;SDS011;40884;53.562;9.940;2023-12-07T05:16:49;44.07;;;27.57;;
54983;SDS011;40884;53.562;9.940;2023-12-07T05:17:49;40.67;;;27.53;;
54983;SDS011;40884;53.562;9.940;2023-12-07T05:18:52;41.13;;;27.90;;
54983;SDS011;40884;53.562;9.940;2023-12-07T05:19:52;40.15;;;28.58;;
54983;SDS011;40884;53.562;9.940;2023-12-07T05:20:52;39.90;;;27.67;;
54983;SDS011;40884;53.562;9.940;2023-12-07T05:21:52;40.47;;;27.43;;
54983;SDS011;40884;53.562;9.940;2023-12-07T05:22:52;40.47;;;29.13;;
54983;SDS011;40884;53.562;9.940;2023-12-07T05:23:52;38.97;;;28.07;;
54983;SDS011;40884;53.562;9.940;2023-12-07T05:24:52;35.60;;;26.80;;
54983;SDS011;40884;53.562;9.940;2023-12-07T05:25:53;41.03;;;27.30;;
54983;SDS011;40884;53.562;9.940;2023-12-07T05:26:53;41.90;;;28.77;;
54983;SDS011;40884;53.562;9.940;2023-12-07T05:27:53;40.93;;;28.17;;
54983;SDS011;40884;53.562;9.940;2023-12-07T05:28:53;41.30;;;28.23;;
54983;SDS011;40884;53.562;9.940;2023-12-07T05:29:53;41.27;;;28.37;;
54983;SDS011;40884;53.562;9.940;2023-12-07T05:30:53;39.20;;;27.40;;
54983;SDS011;40884;53.562;9.940;2023-12-07T05:31:54;39.57;;;27.33;;
54983;SDS011;40884;53.562;9.940;2023-12-07T05:32:54;43.37;;;29.20;;
54983;SDS011;40884;53.562;9.940;2023-12-07T05:33:54;40.93;;;29.37;;
54983;SDS011;40884;53.562;9.940;2023-12-07T05:34:55;42.20;;;29.23;;
54983;SDS011;40884;53.562;9.940;2023-12-07T05:35:55;41.93;;;29.10;;
54983;SDS011;40884;53.562;9.940;2023-12-07T05:36:55;42.60;;;29.70;;
54983;SDS011;40884;53.562;9.940;2023-12-07T05:37:55;39.90;;;28.33;;
54983;SDS011;40884;53.562;9.940;2023-12-07T05:38:55;40.87;;;28.50;;
54983;SDS011;40884;53.562;9.940;2023-12-07T05:39:55;41.97;;;29.67;;
54983;SDS011;40884;53.562;9.940;2023-12-07T05:40:55;45.70;;;31.00;;
54983;SDS011;40884;53.562;9.940;2023-12-07T05:41:56;44.27;;;30.63;;
54983;SDS011;40884;53.562;9.940;2023-12-07T05:42:56;41.10;;;29.60;;
54983;SDS011;40884;53.562;9.940;2023-12-07T05:43:56;43.17;;;30.37;;
54983;SDS011;40884;53.562;9.940;2023-12-07T05:44:56;41.90;;;30.50;;
54983;SDS011;40884;53.562;9.940;2023-12-07T05:45:56;43.30;;;28.73;;
54983;SDS011;40884;53.562;9.940;2023-12-07T05:46:56;43.67;;;30.20;;
54983;SDS011;40884;53.562;9.940;2023-12-07T05:47:56;40.77;;;29.17;;
54983;SDS011;40884;53.562;9.940;2023-12-07T05:48:57;41.80;;;29.43;;
54983;SDS011;40884;53.562;9.940;2023-12-07T05:49:57;41.20;;;29.43;;
54983;SDS011;40884;53.562;9.940;2023-12-07T05:50:57;40.60;;;28.57;;
54983;SDS011;40884;53.562;9.940;2023-12-07T05:51:57;40.80;;;29.37;;
54983;SDS011;40884;53.562;9.940;2023-12-07T05:53:00;40.88;;;29.60;;
54983;SDS011;40884;53.562;9.940;2023-12-07T05:54:00;40.10;;;29.80;;
54983;SDS011;40884;53.562;9.940;2023-12-07T05:55:00;41.90;;;29.17;;
54983;SDS011;40884;53.562;9.940;2023-12-07T05:56:00;39.27;;;29.43;;